createdAt,value
2023-04-30T00:01:47.322Z,9.23
2023-04-30T00:06:51.605Z,9.43
2023-04-30T00:11:54.416Z,9.68
2023-04-30T00:16:57.253Z,9.10
2023-04-30T00:22:02.903Z,8.88
2023-04-30T00:27:05.864Z,9.43
2023-04-30T00:32:08.821Z,10.18
2023-04-30T00:37:13.123Z,9.30
2023-04-30T00:42:16.032Z,8.95
2023-04-30T00:47:18.808Z,9.23
2023-04-30T00:52:22.908Z,8.18
2023-04-30T00:57:26.261Z,9.55
2023-04-30T01:02:29.104Z,9.33
2023-04-30T01:07:33.555Z,10.70
2023-04-30T01:12:41.067Z,9.83
2023-04-30T01:17:49.318Z,9.05
2023-04-30T01:23:01.741Z,8.68
2023-04-30T01:28:09.517Z,9.30
2023-04-30T01:33:12.527Z,9.73
2023-04-30T01:38:22.237Z,8.23
2023-04-30T01:43:35.697Z,9.13
2023-04-30T01:48:46.319Z,8.15
2023-04-30T01:53:49.396Z,9.02
2023-04-30T01:58:54.176Z,8.35
2023-04-30T02:03:57.074Z,9.38
2023-04-30T02:09:03.495Z,8.43
2023-04-30T02:14:08.017Z,8.80
2023-04-30T02:19:11.204Z,9.57
2023-04-30T02:24:13.956Z,7.23
2023-04-30T02:29:18.406Z,8.13
2023-04-30T02:34:21.171Z,6.40
2023-04-30T02:39:24.230Z,5.63
2023-04-30T02:44:28.432Z,5.50
2023-04-30T02:49:31.228Z,5.83
2023-04-30T02:54:33.984Z,5.97
2023-04-30T02:59:38.850Z,6.70
2023-04-30T03:04:41.821Z,6.35
2023-04-30T03:09:44.876Z,6.00
2023-04-30T03:14:48.920Z,6.10
2023-04-30T03:19:51.770Z,6.25
2023-04-30T03:24:54.686Z,6.40
2023-04-30T03:29:58.877Z,6.05
2023-04-30T03:35:01.681Z,5.27
2023-04-30T03:40:05.554Z,5.60
2023-04-30T03:45:10.744Z,5.68
2023-04-30T03:50:13.663Z,5.93
2023-04-30T03:55:16.631Z,6.57
2023-04-30T04:00:21.135Z,6.30
2023-04-30T04:05:27.899Z,6.97
2023-04-30T04:10:30.815Z,6.97
2023-04-30T04:15:35.065Z,6.72
2023-04-30T04:20:39.969Z,6.70
2023-04-30T04:25:44.342Z,6.30
2023-04-30T04:30:49.326Z,6.35
2023-04-30T04:35:52.145Z,5.28
2023-04-30T04:40:56.636Z,4.15
2023-04-30T04:46:01.383Z,3.63
2023-04-30T04:51:05.784Z,3.67
2023-04-30T04:56:09.373Z,4.93
2023-04-30T05:01:13.886Z,4.18
2023-04-30T05:06:16.973Z,4.40
2023-04-30T05:11:19.803Z,4.70
2023-04-30T05:16:24.067Z,4.40
2023-04-30T05:21:29.651Z,4.70
2023-04-30T05:26:32.533Z,3.78
2023-04-30T05:31:36.930Z,3.23
2023-04-30T05:36:39.808Z,3.42
2023-04-30T05:41:42.705Z,3.97
2023-04-30T05:46:46.942Z,4.10
2023-04-30T05:51:49.776Z,4.22
2023-04-30T05:56:52.546Z,5.40
2023-04-30T06:01:56.773Z,4.77
2023-04-30T06:06:59.645Z,5.70
2023-04-30T06:12:02.845Z,5.75
2023-04-30T06:17:07.064Z,5.93
2023-04-30T06:22:09.987Z,6.20
2023-04-30T06:27:12.820Z,5.27
2023-04-30T06:32:16.988Z,5.10
2023-04-30T06:37:20.186Z,4.75
2023-04-30T06:42:23.044Z,3.97
2023-04-30T06:47:27.219Z,3.85
2023-04-30T06:52:30.817Z,4.15
2023-04-30T06:57:33.771Z,3.60
2023-04-30T07:02:38.085Z,3.67
2023-04-30T07:07:40.989Z,3.88
2023-04-30T07:12:43.744Z,4.05
2023-04-30T07:17:47.956Z,4.53
2023-04-30T07:22:51.088Z,4.20
2023-04-30T07:27:54.024Z,4.55
2023-04-30T07:32:58.599Z,3.53
2023-04-30T07:38:01.537Z,3.57
2023-04-30T07:43:05.080Z,3.80
2023-04-30T07:48:09.852Z,3.60
2023-04-30T07:53:12.904Z,3.20
2023-04-30T07:58:15.828Z,3.55
2023-04-30T08:03:20.705Z,3.70
2023-04-30T08:08:23.636Z,3.40
2023-04-30T08:13:26.438Z,3.58
2023-04-30T08:18:30.587Z,3.03
2023-04-30T08:23:33.709Z,2.97
2023-04-30T08:28:36.672Z,3.23
2023-04-30T08:33:43.742Z,2.57
2023-04-30T08:38:46.589Z,2.45
2023-04-30T08:43:49.879Z,3.13
2023-04-30T08:48:54.072Z,3.05
2023-04-30T08:53:58.401Z,2.90
2023-04-30T08:59:01.251Z,2.67
2023-04-30T09:04:06.579Z,3.10
2023-04-30T09:09:10.682Z,3.28
2023-04-30T09:14:13.917Z,3.22
2023-04-30T09:19:26.169Z,2.75
2023-04-30T09:24:46.993Z,3.60
2023-04-30T09:29:49.893Z,3.80
2023-04-30T09:34:54.354Z,3.97
2023-04-30T09:39:58.022Z,3.42
2023-04-30T09:45:00.936Z,3.47
2023-04-30T09:50:06.980Z,3.13
2023-04-30T09:55:10.693Z,3.30
2023-04-30T10:00:15.366Z,3.45
2023-04-30T10:05:19.974Z,3.38
2023-04-30T10:10:23.402Z,3.13
2023-04-30T10:15:28.039Z,3.35
2023-04-30T10:20:33.286Z,2.75
2023-04-30T10:25:36.781Z,3.80
2023-04-30T10:30:39.667Z,2.90
2023-04-30T10:35:48.227Z,3.08
2023-04-30T10:40:51.357Z,3.22
2023-04-30T10:45:54.444Z,3.33
2023-04-30T10:50:59.963Z,2.70
2023-04-30T10:56:07.322Z,2.97
2023-04-30T11:01:12.967Z,2.50
2023-04-30T11:06:20.432Z,2.70
2023-04-30T11:11:24.199Z,3.20
2023-04-30T11:16:30.806Z,3.10
2023-04-30T11:21:35.083Z,3.20
2023-04-30T11:27:14.776Z,2.80
2023-04-30T11:32:18.059Z,2.47
2023-04-30T11:37:24.716Z,2.60
2023-04-30T11:42:27.837Z,3.00
2023-04-30T11:47:40.147Z,2.25
2023-04-30T11:52:50.438Z,3.00
2023-04-30T11:57:55.704Z,2.45
2023-04-30T12:03:01.376Z,2.67
2023-04-30T12:08:07.930Z,2.42
2023-04-30T12:13:14.852Z,3.13
2023-04-30T12:18:17.663Z,2.72
2023-04-30T12:23:22.081Z,2.78
2023-04-30T12:28:25.359Z,2.60
2023-04-30T12:33:31.843Z,3.23
2023-04-30T12:38:35.981Z,2.33
2023-04-30T12:43:38.783Z,2.05
2023-04-30T12:48:45.800Z,2.65
2023-04-30T12:53:50.085Z,2.47
2023-04-30T12:58:52.881Z,2.35
2023-04-30T13:03:55.923Z,2.23
2023-04-30T13:09:00.346Z,3.08
2023-04-30T13:14:03.084Z,2.70
2023-04-30T13:19:06.674Z,2.17
2023-04-30T13:24:10.884Z,2.40
2023-04-30T13:29:13.664Z,2.15
2023-04-30T13:34:16.548Z,1.90
2023-04-30T13:39:21.596Z,2.17
2023-04-30T13:44:24.449Z,1.90
2023-04-30T13:49:27.286Z,2.13
2023-04-30T13:54:31.476Z,2.25
2023-04-30T13:59:34.519Z,1.75
2023-04-30T14:04:37.494Z,2.00
2023-04-30T14:09:41.671Z,1.90
2023-04-30T14:14:44.542Z,2.10
2023-04-30T14:19:47.486Z,1.90
2023-04-30T14:24:53.110Z,2.17
2023-04-30T14:29:56.245Z,2.08
2023-04-30T14:34:59.224Z,2.25
2023-04-30T14:40:05.129Z,1.90
2023-04-30T14:45:09.390Z,2.00
2023-04-30T14:50:12.165Z,2.13
2023-04-30T14:55:16.560Z,2.42
2023-04-30T15:00:19.577Z,2.07
2023-04-30T15:05:22.355Z,2.00
2023-04-30T15:10:26.546Z,2.15
2023-04-30T15:15:29.744Z,1.92
2023-04-30T15:20:32.899Z,2.25
2023-04-30T15:25:37.067Z,2.35
2023-04-30T15:30:39.865Z,2.10
2023-04-30T15:35:42.828Z,2.20
2023-04-30T15:40:46.950Z,2.40
2023-04-30T15:45:50.095Z,2.47
2023-04-30T15:50:52.894Z,1.77
2023-04-30T15:55:57.548Z,2.47
2023-04-30T16:01:01.329Z,2.60
2023-04-30T16:06:04.519Z,2.83
2023-04-30T16:11:09.798Z,2.30
2023-04-30T16:16:13.685Z,2.50
2023-04-30T16:21:17.128Z,2.42
2023-04-30T16:26:22.021Z,2.20
2023-04-30T16:31:24.846Z,2.03
2023-04-30T16:36:28.063Z,2.30
2023-04-30T16:41:32.426Z,2.08
2023-04-30T16:46:36.045Z,2.35
2023-04-30T16:51:39.110Z,2.13
2023-04-30T16:56:43.393Z,2.30
2023-04-30T17:01:46.616Z,2.50
2023-04-30T17:06:49.603Z,2.17
2023-04-30T17:11:53.936Z,2.33
2023-04-30T17:16:57.384Z,1.80
2023-04-30T17:22:00.380Z,1.90
2023-04-30T17:27:05.636Z,2.60
2023-04-30T17:32:11.116Z,2.28
2023-04-30T17:37:13.982Z,2.17
2023-04-30T17:42:18.661Z,2.30
2023-04-30T17:47:22.998Z,2.28
2023-04-30T17:52:26.143Z,2.20
2023-04-30T17:57:30.324Z,2.40
2023-04-30T18:02:33.783Z,2.27
2023-04-30T18:07:36.817Z,2.40
2023-04-30T18:12:41.978Z,1.40
2023-04-30T18:17:46.392Z,1.73
2023-04-30T18:22:49.364Z,1.50
2023-04-30T18:27:53.480Z,2.22
2023-04-30T18:32:56.409Z,2.10
2023-04-30T18:37:59.334Z,2.08
2023-04-30T18:43:03.754Z,1.90
2023-04-30T18:48:07.957Z,2.03
2023-04-30T18:53:10.896Z,2.22
2023-04-30T18:58:15.241Z,1.85
2023-04-30T19:03:18.117Z,2.10
2023-04-30T19:08:21.040Z,2.67
2023-04-30T19:13:25.264Z,2.20
2023-04-30T19:18:28.358Z,2.70
2023-04-30T19:23:31.621Z,2.30
2023-04-30T19:28:35.852Z,2.50
2023-04-30T19:33:40.979Z,2.47
2023-04-30T19:38:43.878Z,2.40
2023-04-30T19:43:48.031Z,3.17
2023-04-30T19:48:51.328Z,2.88
2023-04-30T19:53:54.919Z,2.90
2023-04-30T19:58:59.154Z,3.22
2023-04-30T20:04:02.119Z,3.07
2023-04-30T20:09:05.285Z,3.30
2023-04-30T20:14:09.531Z,3.15
2023-04-30T20:19:13.172Z,3.55
2023-04-30T20:24:16.000Z,3.40
2023-04-30T20:29:20.760Z,2.90
2023-04-30T20:34:24.111Z,3.70
2023-04-30T20:39:27.135Z,3.30
2023-04-30T20:44:31.364Z,3.50
2023-04-30T20:49:34.139Z,2.90
2023-04-30T20:54:36.912Z,3.08
2023-04-30T20:59:41.401Z,3.20
2023-04-30T21:04:44.438Z,3.47
2023-04-30T21:09:47.459Z,3.33
2023-04-30T21:14:51.992Z,3.30
2023-04-30T21:19:56.626Z,3.63
2023-04-30T21:24:59.858Z,3.38
2023-04-30T21:30:04.184Z,3.80
2023-04-30T21:35:07.721Z,3.97
2023-04-30T21:40:11.785Z,3.88
2023-04-30T21:45:16.029Z,3.75
2023-04-30T21:50:19.036Z,3.67
2023-04-30T21:55:22.160Z,4.13
2023-04-30T22:00:26.735Z,3.70
2023-04-30T22:05:29.585Z,3.30
2023-04-30T22:10:33.119Z,3.47
2023-04-30T22:15:47.559Z,2.78
2023-04-30T22:20:51.997Z,3.30
2023-04-30T22:25:54.854Z,3.17
2023-04-30T22:31:02.476Z,2.92
2023-04-30T22:36:06.257Z,2.53
2023-04-30T22:41:09.206Z,2.75
2023-04-30T22:46:13.756Z,3.00
2023-04-30T22:51:17.223Z,3.03
2023-04-30T22:56:20.878Z,2.83
2023-04-30T23:01:25.102Z,2.58
2023-04-30T23:06:29.379Z,3.17
2023-04-30T23:11:32.243Z,3.10
2023-04-30T23:16:39.994Z,2.50
2023-04-30T23:21:43.202Z,2.70
2023-04-30T23:26:47.189Z,3.10
2023-04-30T23:31:53.802Z,3.25
2023-04-30T23:36:57.006Z,2.45
2023-04-30T23:41:59.791Z,2.80
2023-04-30T23:47:03.989Z,2.60
2023-04-30T23:52:07.008Z,3.03
2023-04-30T23:57:10.278Z,2.80
